sensor_id;sensor_type;location;lat;lon;timestamp;temperature;humidity
7411;DHT22;3747;48.628;9.058;2022-07-09T00:00:28;10.80;99.90
7411;DHT22;3747;48.628;9.058;2022-07-09T00:02:55;10.80;99.90
7411;DHT22;3747;48.628;9.058;2022-07-09T00:05:21;10.90;99.90
7411;DHT22;3747;48.628;9.058;2022-07-09T00:07:48;10.90;99.90
7411;DHT22;3747;48.628;9.058;2022-07-09T00:10:16;10.90;99.90
7411;DHT22;3747;48.628;9.058;2022-07-09T00:12:43;10.80;99.90
7411;DHT22;3747;48.628;9.058;2022-07-09T00:15:10;10.80;99.90
7411;DHT22;3747;48.628;9.058;2022-07-09T00:17:37;10.90;99.90
7411;DHT22;3747;48.628;9.058;2022-07-09T00:20:04;10.90;99.90
7411;DHT22;3747;48.628;9.058;2022-07-09T00:22:31;11.00;99.90
7411;DHT22;3747;48.628;9.058;2022-07-09T00:24:58;11.30;99.90
7411;DHT22;3747;48.628;9.058;2022-07-09T00:27:26;11.50;99.90
7411;DHT22;3747;48.628;9.058;2022-07-09T00:29:53;11.50;99.90
7411;DHT22;3747;48.628;9.058;2022-07-09T00:32:20;11.40;99.90
7411;DHT22;3747;48.628;9.058;2022-07-09T00:34:46;11.40;99.90
7411;DHT22;3747;48.628;9.058;2022-07-09T00:37:13;11.60;99.90
7411;DHT22;3747;48.628;9.058;2022-07-09T00:39:40;11.70;99.90
7411;DHT22;3747;48.628;9.058;2022-07-09T00:42:08;11.60;99.90
7411;DHT22;3747;48.628;9.058;2022-07-09T00:44:36;11.60;99.90
7411;DHT22;3747;48.628;9.058;2022-07-09T00:47:04;11.40;99.90
7411;DHT22;3747;48.628;9.058;2022-07-09T00:49:34;11.30;99.90
7411;DHT22;3747;48.628;9.058;2022-07-09T00:52:02;11.30;99.90
7411;DHT22;3747;48.628;9.058;2022-07-09T00:54:31;11.30;99.90
7411;DHT22;3747;48.628;9.058;2022-07-09T00:56:58;11.50;99.90
7411;DHT22;3747;48.628;9.058;2022-07-09T00:59:24;11.50;99.90
7411;DHT22;3747;48.628;9.058;2022-07-09T01:01:53;11.50;99.90
7411;DHT22;3747;48.628;9.058;2022-07-09T01:04:20;11.30;99.90
7411;DHT22;3747;48.628;9.058;2022-07-09T01:06:47;11.20;99.90
7411;DHT22;3747;48.628;9.058;2022-07-09T01:09:14;11.00;99.90
7411;DHT22;3747;48.628;9.058;2022-07-09T01:11:40;10.70;99.90
7411;DHT22;3747;48.628;9.058;2022-07-09T01:14:07;10.50;99.90
7411;DHT22;3747;48.628;9.058;2022-07-09T01:16:35;10.30;99.90
7411;DHT22;3747;48.628;9.058;2022-07-09T01:19:04;10.20;99.90
7411;DHT22;3747;48.628;9.058;2022-07-09T01:21:32;10.10;99.90
7411;DHT22;3747;48.628;9.058;2022-07-09T01:23:59;10.20;99.90
7411;DHT22;3747;48.628;9.058;2022-07-09T01:26:26;10.40;99.90
7411;DHT22;3747;48.628;9.058;2022-07-09T01:28:53;10.60;99.90
7411;DHT22;3747;48.628;9.058;2022-07-09T01:31:20;10.70;99.90
7411;DHT22;3747;48.628;9.058;2022-07-09T01:33:46;10.80;99.90
7411;DHT22;3747;48.628;9.058;2022-07-09T01:36:13;10.90;99.90
7411;DHT22;3747;48.628;9.058;2022-07-09T01:38:41;11.00;99.90
7411;DHT22;3747;48.628;9.058;2022-07-09T01:41:08;11.00;99.90
7411;DHT22;3747;48.628;9.058;2022-07-09T01:43:35;10.80;99.90
7411;DHT22;3747;48.628;9.058;2022-07-09T01:46:02;10.70;99.90
7411;DHT22;3747;48.628;9.058;2022-07-09T01:48:29;10.80;99.90
7411;DHT22;3747;48.628;9.058;2022-07-09T01:50:56;11.10;99.90
7411;DHT22;3747;48.628;9.058;2022-07-09T01:53:24;11.20;99.90
7411;DHT22;3747;48.628;9.058;2022-07-09T01:55:52;11.30;99.90
7411;DHT22;3747;48.628;9.058;2022-07-09T01:58:19;11.20;99.90
7411;DHT22;3747;48.628;9.058;2022-07-09T02:00:45;11.20;99.90
7411;DHT22;3747;48.628;9.058;2022-07-09T02:03:13;11.30;99.90
7411;DHT22;3747;48.628;9.058;2022-07-09T02:05:39;11.40;99.90
7411;DHT22;3747;48.628;9.058;2022-07-09T02:08:06;11.40;99.90
7411;DHT22;3747;48.628;9.058;2022-07-09T02:10:33;11.50;99.90
7411;DHT22;3747;48.628;9.058;2022-07-09T02:13:01;11.40;99.90
7411;DHT22;3747;48.628;9.058;2022-07-09T02:15:28;11.30;99.90
7411;DHT22;3747;48.628;9.058;2022-07-09T02:17:54;11.10;99.90
7411;DHT22;3747;48.628;9.058;2022-07-09T02:20:21;11.00;99.90
7411;DHT22;3747;48.628;9.058;2022-07-09T02:22:48;10.80;99.90
7411;DHT22;3747;48.628;9.058;2022-07-09T02:25:15;10.60;99.90
7411;DHT22;3747;48.628;9.058;2022-07-09T02:27:41;10.40;99.90
7411;DHT22;3747;48.628;9.058;2022-07-09T02:30:10;10.30;99.90
7411;DHT22;3747;48.628;9.058;2022-07-09T02:32:37;10.30;99.90
7411;DHT22;3747;48.628;9.058;2022-07-09T02:35:05;10.40;99.90
7411;DHT22;3747;48.628;9.058;2022-07-09T02:37:32;10.20;99.90
7411;DHT22;3747;48.628;9.058;2022-07-09T02:39:59;10.00;99.90
7411;DHT22;3747;48.628;9.058;2022-07-09T02:42:26;9.90;99.90
7411;DHT22;3747;48.628;9.058;2022-07-09T02:44:52;10.00;99.90
7411;DHT22;3747;48.628;9.058;2022-07-09T02:47:20;10.00;99.90
7411;DHT22;3747;48.628;9.058;2022-07-09T02:49:47;10.10;99.90
7411;DHT22;3747;48.628;9.058;2022-07-09T02:52:14;10.00;99.90
7411;DHT22;3747;48.628;9.058;2022-07-09T02:54:41;10.10;99.90
7411;DHT22;3747;48.628;9.058;2022-07-09T02:57:07;10.30;99.90
7411;DHT22;3747;48.628;9.058;2022-07-09T02:59:34;10.50;99.90
7411;DHT22;3747;48.628;9.058;2022-07-09T03:02:01;10.60;99.90
7411;DHT22;3747;48.628;9.058;2022-07-09T03:04:29;10.50;99.90
7411;DHT22;3747;48.628;9.058;2022-07-09T03:06:56;10.40;99.90
7411;DHT22;3747;48.628;9.058;2022-07-09T03:09:23;10.30;99.90
7411;DHT22;3747;48.628;9.058;2022-07-09T03:11:49;10.40;99.90
7411;DHT22;3747;48.628;9.058;2022-07-09T03:14:16;10.50;99.90
7411;DHT22;3747;48.628;9.058;2022-07-09T03:16:43;10.50;99.90
7411;DHT22;3747;48.628;9.058;2022-07-09T03:19:09;10.60;99.90
7411;DHT22;3747;48.628;9.058;2022-07-09T03:21:37;10.70;99.90
7411;DHT22;3747;48.628;9.058;2022-07-09T03:24:04;10.70;99.90
7411;DHT22;3747;48.628;9.058;2022-07-09T03:26:33;10.70;99.90
7411;DHT22;3747;48.628;9.058;2022-07-09T03:29:00;10.80;99.90
7411;DHT22;3747;48.628;9.058;2022-07-09T03:31:27;10.80;99.90
7411;DHT22;3747;48.628;9.058;2022-07-09T03:33:53;10.70;99.90
7411;DHT22;3747;48.628;9.058;2022-07-09T03:36:20;10.70;99.90
7411;DHT22;3747;48.628;9.058;2022-07-09T03:38:48;10.60;99.90
7411;DHT22;3747;48.628;9.058;2022-07-09T03:41:15;10.60;99.90
7411;DHT22;3747;48.628;9.058;2022-07-09T03:43:41;10.70;99.90
7411;DHT22;3747;48.628;9.058;2022-07-09T03:46:08;10.70;99.90
7411;DHT22;3747;48.628;9.058;2022-07-09T03:48:35;10.70;99.90
7411;DHT22;3747;48.628;9.058;2022-07-09T03:51:02;10.60;99.90
7411;DHT22;3747;48.628;9.058;2022-07-09T03:53:28;10.80;99.90
7411;DHT22;3747;48.628;9.058;2022-07-09T03:55:56;10.90;99.90
7411;DHT22;3747;48.628;9.058;2022-07-09T03:58:23;10.90;99.90
7411;DHT22;3747;48.628;9.058;2022-07-09T04:00:50;10.80;99.90
7411;DHT22;3747;48.628;9.058;2022-07-09T04:03:18;10.60;99.90
7411;DHT22;3747;48.628;9.058;2022-07-09T04:05:44;10.40;99.90
7411;DHT22;3747;48.628;9.058;2022-07-09T04:08:11;10.20;99.90
7411;DHT22;3747;48.628;9.058;2022-07-09T04:10:38;10.10;99.90
7411;DHT22;3747;48.628;9.058;2022-07-09T04:13:06;10.00;99.90
7411;DHT22;3747;48.628;9.058;2022-07-09T04:15:33;10.00;99.90
7411;DHT22;3747;48.628;9.058;2022-07-09T04:18:00;9.90;99.90
7411;DHT22;3747;48.628;9.058;2022-07-09T04:20:26;9.90;99.90
7411;DHT22;3747;48.628;9.058;2022-07-09T04:22:53;10.00;99.90
7411;DHT22;3747;48.628;9.058;2022-07-09T04:25:20;10.40;99.90
7411;DHT22;3747;48.628;9.058;2022-07-09T04:27:47;10.70;99.90
7411;DHT22;3747;48.628;9.058;2022-07-09T04:30:15;10.80;99.90
7411;DHT22;3747;48.628;9.058;2022-07-09T04:32:42;10.80;99.90
7411;DHT22;3747;48.628;9.058;2022-07-09T04:35:08;10.60;99.90
7411;DHT22;3747;48.628;9.058;2022-07-09T04:37:35;10.60;99.90
7411;DHT22;3747;48.628;9.058;2022-07-09T04:40:02;10.50;99.90
7411;DHT22;3747;48.628;9.058;2022-07-09T04:42:29;10.50;99.90
7411;DHT22;3747;48.628;9.058;2022-07-09T04:44:56;10.40;99.90
7411;DHT22;3747;48.628;9.058;2022-07-09T04:47:24;10.50;99.90
7411;DHT22;3747;48.628;9.058;2022-07-09T04:49:51;10.60;99.90
7411;DHT22;3747;48.628;9.058;2022-07-09T04:52:18;10.80;99.90
7411;DHT22;3747;48.628;9.058;2022-07-09T04:54:45;10.90;99.90
7411;DHT22;3747;48.628;9.058;2022-07-09T04:57:12;11.10;99.90
7411;DHT22;3747;48.628;9.058;2022-07-09T04:59:39;11.20;99.90
7411;DHT22;3747;48.628;9.058;2022-07-09T05:02:06;11.30;99.90
7411;DHT22;3747;48.628;9.058;2022-07-09T05:04:34;11.40;99.90
7411;DHT22;3747;48.628;9.058;2022-07-09T05:07:00;11.50;99.90
7411;DHT22;3747;48.628;9.058;2022-07-09T05:09:27;11.60;99.90
7411;DHT22;3747;48.628;9.058;2022-07-09T05:11:54;11.60;99.90
7411;DHT22;3747;48.628;9.058;2022-07-09T05:14:21;11.80;99.90
7411;DHT22;3747;48.628;9.058;2022-07-09T05:16:48;11.90;99.90
7411;DHT22;3747;48.628;9.058;2022-07-09T05:19:15;12.10;99.90
7411;DHT22;3747;48.628;9.058;2022-07-09T05:21:43;12.30;99.90
7411;DHT22;3747;48.628;9.058;2022-07-09T05:24:10;12.60;99.90
7411;DHT22;3747;48.628;9.058;2022-07-09T05:26:36;12.90;99.90
7411;DHT22;3747;48.628;9.058;2022-07-09T05:29:03;13.20;99.90
7411;DHT22;3747;48.628;9.058;2022-07-09T05:31:30;13.50;99.90
7411;DHT22;3747;48.628;9.058;2022-07-09T05:33:56;13.70;99.90
7411;DHT22;3747;48.628;9.058;2022-07-09T05:36:25;13.90;99.90
7411;DHT22;3747;48.628;9.058;2022-07-09T05:38:55;14.10;99.90
7411;DHT22;3747;48.628;9.058;2022-07-09T05:41:22;14.50;99.90
7411;DHT22;3747;48.628;9.058;2022-07-09T05:43:49;14.70;99.90
7411;DHT22;3747;48.628;9.058;2022-07-09T05:46:16;15.00;99.90
7411;DHT22;3747;48.628;9.058;2022-07-09T05:48:43;15.10;99.90
7411;DHT22;3747;48.628;9.058;2022-07-09T05:51:09;15.10;99.90
7411;DHT22;3747;48.628;9.058;2022-07-09T05:53:36;15.40;99.90
7411;DHT22;3747;48.628;9.058;2022-07-09T05:56:05;15.60;99.90
7411;DHT22;3747;48.628;9.058;2022-07-09T05:58:32;15.70;99.90
7411;DHT22;3747;48.628;9.058;2022-07-09T06:00:59;16.10;99.90
7411;DHT22;3747;48.628;9.058;2022-07-09T06:03:26;16.40;99.90
7411;DHT22;3747;48.628;9.058;2022-07-09T06:05:53;16.70;99.90
7411;DHT22;3747;48.628;9.058;2022-07-09T06:08:19;16.90;99.90
7411;DHT22;3747;48.628;9.058;2022-07-09T06:10:46;17.20;99.90
7411;DHT22;3747;48.628;9.058;2022-07-09T06:13:15;17.00;99.90
7411;DHT22;3747;48.628;9.058;2022-07-09T06:15:44;16.70;99.90
7411;DHT22;3747;48.628;9.058;2022-07-09T06:18:11;16.40;99.90
7411;DHT22;3747;48.628;9.058;2022-07-09T06:20:37;16.50;99.90
7411;DHT22;3747;48.628;9.058;2022-07-09T06:23:04;16.60;99.90
7411;DHT22;3747;48.628;9.058;2022-07-09T06:25:31;17.20;99.90
7411;DHT22;3747;48.628;9.058;2022-07-09T06:27:58;17.50;99.90
7411;DHT22;3747;48.628;9.058;2022-07-09T06:30:26;17.80;99.90
7411;DHT22;3747;48.628;9.058;2022-07-09T06:32:53;17.80;99.90
7411;DHT22;3747;48.628;9.058;2022-07-09T06:35:25;17.50;99.90
7411;DHT22;3747;48.628;9.058;2022-07-09T06:37:52;17.40;99.90
7411;DHT22;3747;48.628;9.058;2022-07-09T06:40:20;17.60;99.90
7411;DHT22;3747;48.628;9.058;2022-07-09T06:42:46;17.90;99.90
7411;DHT22;3747;48.628;9.058;2022-07-09T06:45:13;18.10;99.90
7411;DHT22;3747;48.628;9.058;2022-07-09T06:47:42;18.40;99.90
7411;DHT22;3747;48.628;9.058;2022-07-09T06:50:08;18.70;99.90
7411;DHT22;3747;48.628;9.058;2022-07-09T06:52:35;18.80;99.90
7411;DHT22;3747;48.628;9.058;2022-07-09T06:55:04;19.20;99.90
7411;DHT22;3747;48.628;9.058;2022-07-09T06:57:31;18.90;99.90
7411;DHT22;3747;48.628;9.058;2022-07-09T06:59:58;18.80;99.90
7411;DHT22;3747;48.628;9.058;2022-07-09T07:02:25;18.90;99.90
7411;DHT22;3747;48.628;9.058;2022-07-09T07:04:59;19.50;99.90
7411;DHT22;3747;48.628;9.058;2022-07-09T07:07:25;19.60;99.90
7411;DHT22;3747;48.628;9.058;2022-07-09T07:09:52;19.90;99.90
7411;DHT22;3747;48.628;9.058;2022-07-09T07:12:19;20.50;99.90
7411;DHT22;3747;48.628;9.058;2022-07-09T07:14:45;21.20;99.90
7411;DHT22;3747;48.628;9.058;2022-07-09T07:17:12;21.60;99.90
7411;DHT22;3747;48.628;9.058;2022-07-09T07:19:39;21.40;99.90
7411;DHT22;3747;48.628;9.058;2022-07-09T07:22:07;20.90;99.90
7411;DHT22;3747;48.628;9.058;2022-07-09T07:24:34;21.50;99.90
7411;DHT22;3747;48.628;9.058;2022-07-09T07:27:02;21.40;99.90
7411;DHT22;3747;48.628;9.058;2022-07-09T07:29:29;21.00;99.90
7411;DHT22;3747;48.628;9.058;2022-07-09T07:31:55;20.90;99.90
7411;DHT22;3747;48.628;9.058;2022-07-09T07:34:25;21.20;99.90
7411;DHT22;3747;48.628;9.058;2022-07-09T07:36:52;20.40;99.90
7411;DHT22;3747;48.628;9.058;2022-07-09T07:39:20;19.90;99.90
7411;DHT22;3747;48.628;9.058;2022-07-09T07:41:47;19.70;99.90
7411;DHT22;3747;48.628;9.058;2022-07-09T07:44:14;20.40;99.90
7411;DHT22;3747;48.628;9.058;2022-07-09T07:46:40;20.50;99.90
7411;DHT22;3747;48.628;9.058;2022-07-09T07:49:07;21.00;99.90
7411;DHT22;3747;48.628;9.058;2022-07-09T07:51:34;21.20;99.90
7411;DHT22;3747;48.628;9.058;2022-07-09T07:54:00;21.90;99.90
7411;DHT22;3747;48.628;9.058;2022-07-09T07:56:28;22.10;99.90
7411;DHT22;3747;48.628;9.058;2022-07-09T07:58:57;22.40;99.90
7411;DHT22;3747;48.628;9.058;2022-07-09T08:01:25;23.10;99.90
7411;DHT22;3747;48.628;9.058;2022-07-09T08:03:52;22.80;99.90
7411;DHT22;3747;48.628;9.058;2022-07-09T08:06:19;22.90;99.90
7411;DHT22;3747;48.628;9.058;2022-07-09T08:08:47;23.50;99.90
7411;DHT22;3747;48.628;9.058;2022-07-09T08:11:14;23.90;99.90
7411;DHT22;3747;48.628;9.058;2022-07-09T08:13:42;23.10;99.90
7411;DHT22;3747;48.628;9.058;2022-07-09T08:16:09;23.50;99.90
7411;DHT22;3747;48.628;9.058;2022-07-09T08:18:35;23.40;99.90
7411;DHT22;3747;48.628;9.058;2022-07-09T08:21:02;23.80;99.90
7411;DHT22;3747;48.628;9.058;2022-07-09T08:23:29;24.30;99.90
7411;DHT22;3747;48.628;9.058;2022-07-09T08:25:56;25.00;99.90
7411;DHT22;3747;48.628;9.058;2022-07-09T08:28:22;25.00;99.90
7411;DHT22;3747;48.628;9.058;2022-07-09T08:30:50;23.60;99.90
7411;DHT22;3747;48.628;9.058;2022-07-09T08:33:17;24.20;99.90
7411;DHT22;3747;48.628;9.058;2022-07-09T08:35:44;24.40;99.90
7411;DHT22;3747;48.628;9.058;2022-07-09T08:38:11;25.30;99.90
7411;DHT22;3747;48.628;9.058;2022-07-09T08:40:37;25.10;99.90
7411;DHT22;3747;48.628;9.058;2022-07-09T08:43:04;25.30;99.90
7411;DHT22;3747;48.628;9.058;2022-07-09T08:45:32;26.10;99.90
7411;DHT22;3747;48.628;9.058;2022-07-09T08:48:02;25.90;99.90
7411;DHT22;3747;48.628;9.058;2022-07-09T08:50:31;25.60;99.90
7411;DHT22;3747;48.628;9.058;2022-07-09T08:52:59;26.40;99.90
7411;DHT22;3747;48.628;9.058;2022-07-09T08:55:28;26.10;99.90
7411;DHT22;3747;48.628;9.058;2022-07-09T08:57:55;26.20;99.90
7411;DHT22;3747;48.628;9.058;2022-07-09T09:00:22;25.60;99.90
7411;DHT22;3747;48.628;9.058;2022-07-09T09:02:48;24.90;99.90
7411;DHT22;3747;48.628;9.058;2022-07-09T09:05:16;24.10;99.90
7411;DHT22;3747;48.628;9.058;2022-07-09T09:07:43;24.80;99.90
7411;DHT22;3747;48.628;9.058;2022-07-09T09:10:20;25.40;99.90
7411;DHT22;3747;48.628;9.058;2022-07-09T09:12:48;25.40;99.90
7411;DHT22;3747;48.628;9.058;2022-07-09T09:15:17;26.40;99.90
7411;DHT22;3747;48.628;9.058;2022-07-09T09:17:44;25.30;99.90
7411;DHT22;3747;48.628;9.058;2022-07-09T09:20:11;24.80;99.90
7411;DHT22;3747;48.628;9.058;2022-07-09T09:22:46;25.20;99.90
7411;DHT22;3747;48.628;9.058;2022-07-09T09:25:17;25.20;99.90
7411;DHT22;3747;48.628;9.058;2022-07-09T09:27:51;25.50;99.90
7411;DHT22;3747;48.628;9.058;2022-07-09T09:30:30;26.10;99.90
7411;DHT22;3747;48.628;9.058;2022-07-09T09:32:59;26.90;99.90
7411;DHT22;3747;48.628;9.058;2022-07-09T09:35:42;27.00;99.10
7411;DHT22;3747;48.628;9.058;2022-07-09T09:38:10;26.50;99.00
7411;DHT22;3747;48.628;9.058;2022-07-09T09:40:44;25.80;99.90
7411;DHT22;3747;48.628;9.058;2022-07-09T09:43:13;26.00;99.90
7411;DHT22;3747;48.628;9.058;2022-07-09T09:45:41;26.20;99.90
7411;DHT22;3747;48.628;9.058;2022-07-09T09:48:19;27.20;99.20
7411;DHT22;3747;48.628;9.058;2022-07-09T09:50:48;27.60;98.60
7411;DHT22;3747;48.628;9.058;2022-07-09T09:53:17;27.10;97.70
7411;DHT22;3747;48.628;9.058;2022-07-09T09:55:46;27.80;98.50
7411;DHT22;3747;48.628;9.058;2022-07-09T09:58:13;28.40;97.90
7411;DHT22;3747;48.628;9.058;2022-07-09T10:00:41;29.20;95.60
7411;DHT22;3747;48.628;9.058;2022-07-09T10:03:10;29.60;95.60
7411;DHT22;3747;48.628;9.058;2022-07-09T10:05:37;30.20;95.40
7411;DHT22;3747;48.628;9.058;2022-07-09T10:08:04;30.20;93.80
7411;DHT22;3747;48.628;9.058;2022-07-09T10:10:33;29.70;93.10
7411;DHT22;3747;48.628;9.058;2022-07-09T10:12:59;29.80;93.90
7411;DHT22;3747;48.628;9.058;2022-07-09T10:15:26;29.90;93.50
7411;DHT22;3747;48.628;9.058;2022-07-09T10:17:53;29.80;93.20
7411;DHT22;3747;48.628;9.058;2022-07-09T10:20:29;29.50;94.20
7411;DHT22;3747;48.628;9.058;2022-07-09T10:22:57;28.10;95.90
7411;DHT22;3747;48.628;9.058;2022-07-09T10:25:28;26.80;96.80
7411;DHT22;3747;48.628;9.058;2022-07-09T10:27:56;26.20;99.90
7411;DHT22;3747;48.628;9.058;2022-07-09T10:30:24;25.80;99.90
7411;DHT22;3747;48.628;9.058;2022-07-09T10:33:05;26.00;97.10
7411;DHT22;3747;48.628;9.058;2022-07-09T10:35:39;25.30;98.40
7411;DHT22;3747;48.628;9.058;2022-07-09T10:38:06;25.10;96.80
7411;DHT22;3747;48.628;9.058;2022-07-09T10:40:39;26.30;98.30
7411;DHT22;3747;48.628;9.058;2022-07-09T10:43:07;26.50;96.00
7411;DHT22;3747;48.628;9.058;2022-07-09T10:45:38;26.30;97.40
7411;DHT22;3747;48.628;9.058;2022-07-09T10:48:07;27.10;95.10
7411;DHT22;3747;48.628;9.058;2022-07-09T10:50:37;27.70;95.30
7411;DHT22;3747;48.628;9.058;2022-07-09T10:53:05;28.30;95.50
7411;DHT22;3747;48.628;9.058;2022-07-09T10:55:32;28.20;93.30
7411;DHT22;3747;48.628;9.058;2022-07-09T10:57:59;27.40;95.00
7411;DHT22;3747;48.628;9.058;2022-07-09T11:00:29;27.90;93.60
7411;DHT22;3747;48.628;9.058;2022-07-09T11:02:58;28.40;93.60
7411;DHT22;3747;48.628;9.058;2022-07-09T11:05:26;28.30;92.90
7411;DHT22;3747;48.628;9.058;2022-07-09T11:07:57;29.30;92.20
7411;DHT22;3747;48.628;9.058;2022-07-09T11:10:24;29.40;91.30
7411;DHT22;3747;48.628;9.058;2022-07-09T11:12:53;30.80;90.70
7411;DHT22;3747;48.628;9.058;2022-07-09T11:15:20;30.70;92.10
7411;DHT22;3747;48.628;9.058;2022-07-09T11:17:59;31.90;87.60
7411;DHT22;3747;48.628;9.058;2022-07-09T11:20:27;30.80;91.90
7411;DHT22;3747;48.628;9.058;2022-07-09T11:22:55;29.90;87.80
7411;DHT22;3747;48.628;9.058;2022-07-09T11:25:23;29.00;90.30
7411;DHT22;3747;48.628;9.058;2022-07-09T11:27:52;29.40;89.50
7411;DHT22;3747;48.628;9.058;2022-07-09T11:30:19;31.00;86.90
7411;DHT22;3747;48.628;9.058;2022-07-09T11:32:47;31.80;88.60
7411;DHT22;3747;48.628;9.058;2022-07-09T11:35:28;30.90;88.40
7411;DHT22;3747;48.628;9.058;2022-07-09T11:37:56;27.20;91.10
7411;DHT22;3747;48.628;9.058;2022-07-09T11:40:23;25.50;91.80
7411;DHT22;3747;48.628;9.058;2022-07-09T11:42:50;24.30;93.70
7411;DHT22;3747;48.628;9.058;2022-07-09T11:45:20;23.70;94.00
7411;DHT22;3747;48.628;9.058;2022-07-09T11:47:47;23.40;96.80
7411;DHT22;3747;48.628;9.058;2022-07-09T11:50:15;23.40;97.70
7411;DHT22;3747;48.628;9.058;2022-07-09T11:52:46;23.50;96.50
7411;DHT22;3747;48.628;9.058;2022-07-09T11:55:20;23.60;96.50
7411;DHT22;3747;48.628;9.058;2022-07-09T11:57:52;23.80;97.00
7411;DHT22;3747;48.628;9.058;2022-07-09T12:00:22;24.10;97.60
7411;DHT22;3747;48.628;9.058;2022-07-09T12:02:49;24.80;99.90
7411;DHT22;3747;48.628;9.058;2022-07-09T12:05:25;25.50;98.50
7411;DHT22;3747;48.628;9.058;2022-07-09T12:07:54;26.40;96.80
7411;DHT22;3747;48.628;9.058;2022-07-09T12:10:26;26.80;95.70
7411;DHT22;3747;48.628;9.058;2022-07-09T12:12:53;27.30;94.80
7411;DHT22;3747;48.628;9.058;2022-07-09T12:15:20;27.40;96.00
7411;DHT22;3747;48.628;9.058;2022-07-09T12:17:50;27.00;94.50
7411;DHT22;3747;48.628;9.058;2022-07-09T12:20:18;26.40;94.30
7411;DHT22;3747;48.628;9.058;2022-07-09T12:22:44;25.80;96.70
7411;DHT22;3747;48.628;9.058;2022-07-09T12:25:13;25.10;97.00
7411;DHT22;3747;48.628;9.058;2022-07-09T12:27:39;24.60;97.70
7411;DHT22;3747;48.628;9.058;2022-07-09T12:30:07;24.50;96.90
7411;DHT22;3747;48.628;9.058;2022-07-09T12:32:34;25.30;99.90
7411;DHT22;3747;48.628;9.058;2022-07-09T12:35:01;26.70;97.10
7411;DHT22;3747;48.628;9.058;2022-07-09T12:37:28;27.00;95.20
7411;DHT22;3747;48.628;9.058;2022-07-09T12:39:55;26.00;95.40
7411;DHT22;3747;48.628;9.058;2022-07-09T12:42:23;26.00;96.90
7411;DHT22;3747;48.628;9.058;2022-07-09T12:44:49;26.10;95.10
7411;DHT22;3747;48.628;9.058;2022-07-09T12:47:16;27.10;94.60
7411;DHT22;3747;48.628;9.058;2022-07-09T12:49:43;28.10;93.40
7411;DHT22;3747;48.628;9.058;2022-07-09T12:52:10;28.40;94.20
7411;DHT22;3747;48.628;9.058;2022-07-09T12:54:37;27.80;93.40
7411;DHT22;3747;48.628;9.058;2022-07-09T12:57:04;27.30;94.10
7411;DHT22;3747;48.628;9.058;2022-07-09T12:59:32;27.80;95.10
7411;DHT22;3747;48.628;9.058;2022-07-09T13:01:59;27.50;94.30
7411;DHT22;3747;48.628;9.058;2022-07-09T13:04:25;27.00;95.50
7411;DHT22;3747;48.628;9.058;2022-07-09T13:06:52;26.20;94.90
7411;DHT22;3747;48.628;9.058;2022-07-09T13:09:19;25.30;95.00
7411;DHT22;3747;48.628;9.058;2022-07-09T13:11:46;25.20;96.10
7411;DHT22;3747;48.628;9.058;2022-07-09T13:14:13;25.60;98.00
7411;DHT22;3747;48.628;9.058;2022-07-09T13:16:42;26.80;97.40
7411;DHT22;3747;48.628;9.058;2022-07-09T13:19:08;26.60;97.40
7411;DHT22;3747;48.628;9.058;2022-07-09T13:21:35;27.50;94.50
7411;DHT22;3747;48.628;9.058;2022-07-09T13:24:02;29.50;94.20
7411;DHT22;3747;48.628;9.058;2022-07-09T13:26:29;29.30;94.60
7411;DHT22;3747;48.628;9.058;2022-07-09T13:28:55;27.80;93.60
7411;DHT22;3747;48.628;9.058;2022-07-09T13:31:22;27.50;92.70
7411;DHT22;3747;48.628;9.058;2022-07-09T13:33:50;26.70;94.90
7411;DHT22;3747;48.628;9.058;2022-07-09T13:36:17;26.60;94.40
7411;DHT22;3747;48.628;9.058;2022-07-09T13:38:55;26.00;94.80
7411;DHT22;3747;48.628;9.058;2022-07-09T13:41:22;26.80;93.80
7411;DHT22;3747;48.628;9.058;2022-07-09T13:43:58;27.40;93.60
7411;DHT22;3747;48.628;9.058;2022-07-09T13:46:39;27.10;95.60
7411;DHT22;3747;48.628;9.058;2022-07-09T13:49:14;26.00;92.90
7411;DHT22;3747;48.628;9.058;2022-07-09T13:51:49;25.70;94.20
7411;DHT22;3747;48.628;9.058;2022-07-09T13:54:16;25.50;94.10
7411;DHT22;3747;48.628;9.058;2022-07-09T13:56:47;25.60;94.40
7411;DHT22;3747;48.628;9.058;2022-07-09T13:59:15;25.40;95.80
7411;DHT22;3747;48.628;9.058;2022-07-09T14:01:42;25.30;94.60
7411;DHT22;3747;48.628;9.058;2022-07-09T14:04:08;25.20;94.00
7411;DHT22;3747;48.628;9.058;2022-07-09T14:06:37;25.00;95.60
7411;DHT22;3747;48.628;9.058;2022-07-09T14:09:04;24.90;95.50
7411;DHT22;3747;48.628;9.058;2022-07-09T14:11:31;24.90;94.80
7411;DHT22;3747;48.628;9.058;2022-07-09T14:13:58;24.80;95.50
7411;DHT22;3747;48.628;9.058;2022-07-09T14:16:25;25.30;96.40
7411;DHT22;3747;48.628;9.058;2022-07-09T14:18:52;25.50;95.10
7411;DHT22;3747;48.628;9.058;2022-07-09T14:21:20;26.00;94.30
7411;DHT22;3747;48.628;9.058;2022-07-09T14:23:48;26.40;94.60
7411;DHT22;3747;48.628;9.058;2022-07-09T14:26:20;26.30;94.90
7411;DHT22;3747;48.628;9.058;2022-07-09T14:28:48;25.90;94.00
7411;DHT22;3747;48.628;9.058;2022-07-09T14:31:22;25.90;96.20
7411;DHT22;3747;48.628;9.058;2022-07-09T14:33:59;26.40;95.30
7411;DHT22;3747;48.628;9.058;2022-07-09T14:36:26;27.00;94.00
7411;DHT22;3747;48.628;9.058;2022-07-09T14:38:54;28.10;93.80
7411;DHT22;3747;48.628;9.058;2022-07-09T14:41:34;28.20;96.50
7411;DHT22;3747;48.628;9.058;2022-07-09T14:44:01;29.40;92.90
7411;DHT22;3747;48.628;9.058;2022-07-09T14:46:34;29.90;93.80
7411;DHT22;3747;48.628;9.058;2022-07-09T14:49:14;28.20;92.90
7411;DHT22;3747;48.628;9.058;2022-07-09T14:51:41;27.20;93.70
7411;DHT22;3747;48.628;9.058;2022-07-09T14:54:09;27.80;92.50
7411;DHT22;3747;48.628;9.058;2022-07-09T14:56:36;28.40;90.80
7411;DHT22;3747;48.628;9.058;2022-07-09T14:59:03;29.10;92.70
7411;DHT22;3747;48.628;9.058;2022-07-09T15:01:30;28.10;91.80
7411;DHT22;3747;48.628;9.058;2022-07-09T15:03:56;26.90;93.50
7411;DHT22;3747;48.628;9.058;2022-07-09T15:06:23;26.70;92.90
7411;DHT22;3747;48.628;9.058;2022-07-09T15:08:50;26.90;95.10
7411;DHT22;3747;48.628;9.058;2022-07-09T15:11:18;27.90;94.10
7411;DHT22;3747;48.628;9.058;2022-07-09T15:13:45;28.90;92.90
7411;DHT22;3747;48.628;9.058;2022-07-09T15:16:11;28.90;92.90
7411;DHT22;3747;48.628;9.058;2022-07-09T15:18:38;27.90;92.10
7411;DHT22;3747;48.628;9.058;2022-07-09T15:21:05;27.90;92.30
7411;DHT22;3747;48.628;9.058;2022-07-09T15:23:34;28.20;90.90
7411;DHT22;3747;48.628;9.058;2022-07-09T15:26:00;28.70;92.40
7411;DHT22;3747;48.628;9.058;2022-07-09T15:28:28;28.80;90.20
7411;DHT22;3747;48.628;9.058;2022-07-09T15:30:55;28.00;92.30
7411;DHT22;3747;48.628;9.058;2022-07-09T15:33:22;28.00;90.90
7411;DHT22;3747;48.628;9.058;2022-07-09T15:35:49;27.30;91.30
7411;DHT22;3747;48.628;9.058;2022-07-09T15:38:22;27.70;91.80
7411;DHT22;3747;48.628;9.058;2022-07-09T15:40:48;27.50;91.60
7411;DHT22;3747;48.628;9.058;2022-07-09T15:43:15;26.50;91.70
7411;DHT22;3747;48.628;9.058;2022-07-09T15:45:43;25.30;92.80
7411;DHT22;3747;48.628;9.058;2022-07-09T15:48:10;24.60;92.70
7411;DHT22;3747;48.628;9.058;2022-07-09T15:50:37;24.50;93.90
7411;DHT22;3747;48.628;9.058;2022-07-09T15:53:03;24.50;93.60
7411;DHT22;3747;48.628;9.058;2022-07-09T15:55:30;24.20;93.80
7411;DHT22;3747;48.628;9.058;2022-07-09T15:57:57;24.30;93.90
7411;DHT22;3747;48.628;9.058;2022-07-09T16:00:24;24.40;94.10
7411;DHT22;3747;48.628;9.058;2022-07-09T16:02:52;24.70;95.80
7411;DHT22;3747;48.628;9.058;2022-07-09T16:05:20;25.80;95.50